sensor_id;sensor_type;location;lat;lon;timestamp;pressure;altitude;pressure_sealevel;temperature;humidity
79368;BME280;68834;53.152;17.962;2023-03-25T12:29:37;99659.23;;;15.53;43.14
79368;BME280;68834;53.152;17.962;2023-03-25T12:41:01;99711.96;;;13.13;55.07
79368;BME280;68834;53.152;17.962;2023-03-25T12:43:56;99700.84;;;12.28;55.82
79368;BME280;68834;53.152;17.962;2023-03-25T12:52:07;99670.40;;;10.82;59.66
79368;BME280;68834;53.152;17.962;2023-03-25T13:00:14;99687.65;;;10.63;63.61
79368;BME280;68834;53.152;17.962;2023-03-25T13:11:04;99677.04;;;10.74;65.74
79368;BME280;68834;53.152;17.962;2023-03-25T13:13:34;99670.56;;;10.87;66.01
79368;BME280;68834;53.152;17.962;2023-03-25T13:16:32;99671.28;;;11.10;66.38
79368;BME280;68834;53.152;17.962;2023-03-25T13:19:18;99670.89;;;11.73;65.03
79368;BME280;68834;53.152;17.962;2023-03-25T13:21:51;99668.02;;;11.82;64.86
79368;BME280;68834;53.152;17.962;2023-03-25T13:24:38;99669.77;;;11.89;65.37
79368;BME280;68834;53.152;17.962;2023-03-25T13:27:10;99668.34;;;11.94;65.02
79368;BME280;68834;53.152;17.962;2023-03-25T13:29:45;99663.29;;;12.01;65.15
79368;BME280;68834;53.152;17.962;2023-03-25T13:32:34;99650.42;;;12.20;64.96
79368;BME280;68834;53.152;17.962;2023-03-25T13:35:06;99647.02;;;12.36;64.55
79368;BME280;68834;53.152;17.962;2023-03-25T13:37:40;99641.86;;;12.37;64.44
79368;BME280;68834;53.152;17.962;2023-03-25T13:40:26;99634.52;;;12.26;64.59
79368;BME280;68834;53.152;17.962;2023-03-25T13:42:58;99631.32;;;12.06;64.70
79368;BME280;68834;53.152;17.962;2023-03-25T13:45:32;99631.78;;;12.04;64.28
79368;BME280;68834;53.152;17.962;2023-03-25T13:48:26;99623.77;;;12.24;64.32
79368;BME280;68834;53.152;17.962;2023-03-25T13:51:01;99620.45;;;12.51;63.68
79368;BME280;68834;53.152;17.962;2023-03-25T14:08:00;99605.88;;;16.34;53.81
79368;BME280;68834;53.152;17.962;2023-03-25T14:10:53;99600.64;;;17.43;53.33
79368;BME280;68834;53.152;17.962;2023-03-25T14:13:27;99604.42;;;17.42;51.80
79368;BME280;68834;53.152;17.962;2023-03-25T14:16:14;99606.90;;;18.26;49.92
79368;BME280;68834;53.152;17.962;2023-03-25T14:18:46;99603.15;;;19.44;47.67
79368;BME280;68834;53.152;17.962;2023-03-25T14:26:42;99609.17;;;18.00;47.20
79368;BME280;68834;53.152;17.962;2023-03-25T14:34:34;99619.05;;;16.09;51.09
79368;BME280;68834;53.152;17.962;2023-03-25T14:39:43;99622.18;;;15.32;52.62
79368;BME280;68834;53.152;17.962;2023-03-25T14:42:22;99621.13;;;14.92;53.70
79368;BME280;68834;53.152;17.962;2023-03-25T14:44:51;99624.56;;;14.52;54.75
79368;BME280;68834;53.152;17.962;2023-03-25T14:47:29;99622.41;;;14.23;55.26
79368;BME280;68834;53.152;17.962;2023-03-25T14:52:54;99625.20;;;13.67;56.81
79368;BME280;68834;53.152;17.962;2023-03-25T14:58:00;99622.60;;;13.15;58.68
79368;BME280;68834;53.152;17.962;2023-03-25T15:00:30;99624.77;;;12.90;58.92
79368;BME280;68834;53.152;17.962;2023-03-25T15:03:08;99626.60;;;12.72;59.44
79368;BME280;68834;53.152;17.962;2023-03-25T15:05:36;99629.17;;;12.53;60.33
79368;BME280;68834;53.152;17.962;2023-03-25T15:10:35;99629.95;;;12.27;61.58
79368;BME280;68834;53.152;17.962;2023-03-25T15:13:08;99635.84;;;12.17;61.66
79368;BME280;68834;53.152;17.962;2023-03-25T15:18:56;99637.13;;;12.06;61.81
79368;BME280;68834;53.152;17.962;2023-03-25T15:26:39;99633.88;;;11.86;59.44
79368;BME280;68834;53.152;17.962;2023-03-25T15:32:00;99631.27;;;12.03;58.33
79368;BME280;68834;53.152;17.962;2023-03-25T15:34:42;99628.19;;;12.02;58.77
79368;BME280;68834;53.152;17.962;2023-03-25T15:48:50;99617.91;;;13.97;53.33
79368;BME280;68834;53.152;17.962;2023-03-25T15:51:48;99619.04;;;14.17;53.74
79368;BME280;68834;53.152;17.962;2023-03-25T16:02:44;99632.41;;;13.80;52.60
79368;BME280;68834;53.152;17.962;2023-03-25T16:05:15;99633.65;;;13.70;52.80
79368;BME280;68834;53.152;17.962;2023-03-25T16:07:43;99631.19;;;13.60;52.73
79368;BME280;68834;53.152;17.962;2023-03-25T16:10:40;99635.98;;;13.50;52.77
79368;BME280;68834;53.152;17.962;2023-03-25T16:13:12;99633.16;;;13.21;53.28
79368;BME280;68834;53.152;17.962;2023-03-25T16:15:43;99638.58;;;13.01;53.59
79368;BME280;68834;53.152;17.962;2023-03-25T16:18:13;99633.50;;;12.84;53.99
79368;BME280;68834;53.152;17.962;2023-03-25T16:20:41;99639.52;;;12.59;54.03
79368;BME280;68834;53.152;17.962;2023-03-25T16:23:18;99635.84;;;12.35;54.53
79368;BME280;68834;53.152;17.962;2023-03-25T16:25:47;99642.59;;;12.12;54.43
79368;BME280;68834;53.152;17.962;2023-03-25T16:28:32;99641.89;;;11.90;54.93
79368;BME280;68834;53.152;17.962;2023-03-25T16:30:59;99641.64;;;11.69;55.33
79368;BME280;68834;53.152;17.962;2023-03-25T16:33:30;99643.88;;;11.51;56.11
79368;BME280;68834;53.152;17.962;2023-03-25T16:36:00;99647.25;;;11.35;56.87
79368;BME280;68834;53.152;17.962;2023-03-25T16:38:30;99651.21;;;11.21;57.24
79368;BME280;68834;53.152;17.962;2023-03-25T16:41:10;99649.34;;;11.08;57.50
79368;BME280;68834;53.152;17.962;2023-03-25T16:43:38;99647.77;;;10.96;57.96
79368;BME280;68834;53.152;17.962;2023-03-25T16:46:06;99653.52;;;10.85;58.68
79368;BME280;68834;53.152;17.962;2023-03-25T16:48:38;99651.50;;;10.75;58.82
79368;BME280;68834;53.152;17.962;2023-03-25T16:51:39;99656.46;;;10.65;59.65
79368;BME280;68834;53.152;17.962;2023-03-25T16:54:08;99661.41;;;10.52;60.16
79368;BME280;68834;53.152;17.962;2023-03-25T16:56:37;99664.62;;;10.42;60.40
79368;BME280;68834;53.152;17.962;2023-03-25T16:59:10;99670.50;;;10.34;60.36
79368;BME280;68834;53.152;17.962;2023-03-25T17:01:43;99674.38;;;10.30;61.10
79368;BME280;68834;53.152;17.962;2023-03-25T17:04:17;99674.05;;;10.24;61.83
79368;BME280;68834;53.152;17.962;2023-03-25T17:06:56;99677.16;;;10.16;62.17
79368;BME280;68834;53.152;17.962;2023-03-25T17:09:29;99682.73;;;10.08;62.18
79368;BME280;68834;53.152;17.962;2023-03-25T17:12:05;99679.73;;;10.00;62.33
79368;BME280;68834;53.152;17.962;2023-03-25T17:14:36;99685.09;;;9.93;63.12
79368;BME280;68834;53.152;17.962;2023-03-25T17:17:29;99687.84;;;9.84;63.51
79368;BME280;68834;53.152;17.962;2023-03-25T17:20:05;99689.39;;;9.76;63.99
79368;BME280;68834;53.152;17.962;2023-03-25T17:22:37;99691.77;;;9.69;64.63
79368;BME280;68834;53.152;17.962;2023-03-25T17:25:50;99694.21;;;9.64;64.47
79368;BME280;68834;53.152;17.962;2023-03-25T17:30:45;99730.23;;;9.62;65.47
79368;BME280;68834;53.152;17.962;2023-03-25T17:33:27;99740.33;;;9.63;66.83
79368;BME280;68834;53.152;17.962;2023-03-25T17:35:57;99750.04;;;9.60;68.19
79368;BME280;68834;53.152;17.962;2023-03-25T17:38:30;99744.06;;;9.51;68.98
79368;BME280;68834;53.152;17.962;2023-03-25T17:41:04;99727.23;;;9.44;68.77
79368;BME280;68834;53.152;17.962;2023-03-25T17:43:39;99726.47;;;9.36;69.05
79368;BME280;68834;53.152;17.962;2023-03-25T17:46:06;99731.13;;;9.33;68.82
79368;BME280;68834;53.152;17.962;2023-03-25T17:48:34;99735.85;;;9.32;69.27
79368;BME280;68834;53.152;17.962;2023-03-25T17:51:02;99738.52;;;9.31;69.85
79368;BME280;68834;53.152;17.962;2023-03-25T17:53:28;99740.39;;;9.27;70.36
79368;BME280;68834;53.152;17.962;2023-03-25T17:55:56;99740.10;;;9.21;70.08
79368;BME280;68834;53.152;17.962;2023-03-25T17:58:24;99740.98;;;9.16;70.58
79368;BME280;68834;53.152;17.962;2023-03-25T18:00:51;99742.91;;;9.10;70.38
79368;BME280;68834;53.152;17.962;2023-03-25T18:03:21;99743.86;;;9.03;70.72
79368;BME280;68834;53.152;17.962;2023-03-25T18:05:49;99744.33;;;8.95;71.13
79368;BME280;68834;53.152;17.962;2023-03-25T18:08:21;99748.84;;;8.90;71.40
79368;BME280;68834;53.152;17.962;2023-03-25T18:10:52;99746.02;;;8.86;71.00
79368;BME280;68834;53.152;17.962;2023-03-25T18:13:21;99751.59;;;8.86;71.29
79368;BME280;68834;53.152;17.962;2023-03-25T18:15:50;99759.56;;;8.87;71.11
79368;BME280;68834;53.152;17.962;2023-03-25T18:18:19;99756.13;;;8.86;72.20
79368;BME280;68834;53.152;17.962;2023-03-25T18:20:47;99757.05;;;8.79;72.34
79368;BME280;68834;53.152;17.962;2023-03-25T18:23:13;99756.13;;;8.70;72.68
79368;BME280;68834;53.152;17.962;2023-03-25T18:25:42;99752.63;;;8.61;73.03
79368;BME280;68834;53.152;17.962;2023-03-25T18:28:11;99757.73;;;8.53;73.01
79368;BME280;68834;53.152;17.962;2023-03-25T18:33:07;99757.25;;;8.52;72.05
79368;BME280;68834;53.152;17.962;2023-03-25T18:35:34;99755.36;;;8.51;72.44
79368;BME280;68834;53.152;17.962;2023-03-25T18:38:00;99747.45;;;8.48;72.02
79368;BME280;68834;53.152;17.962;2023-03-25T18:40:32;99749.38;;;8.42;72.41
79368;BME280;68834;53.152;17.962;2023-03-25T18:42:59;99752.70;;;8.35;72.24
79368;BME280;68834;53.152;17.962;2023-03-25T18:45:26;99750.69;;;8.27;72.89
79368;BME280;68834;53.152;17.962;2023-03-25T18:47:53;99747.79;;;8.20;72.45
79368;BME280;68834;53.152;17.962;2023-03-25T18:52:53;99746.93;;;8.14;72.16
79368;BME280;68834;53.152;17.962;2023-03-25T18:55:20;99744.67;;;8.14;72.32
79368;BME280;68834;53.152;17.962;2023-03-25T18:57:47;99735.80;;;8.14;72.22
79368;BME280;68834;53.152;17.962;2023-03-25T19:00:23;99726.66;;;8.11;72.36
79368;BME280;68834;53.152;17.962;2023-03-25T19:02:51;99729.39;;;8.08;72.94
79368;BME280;68834;53.152;17.962;2023-03-25T19:05:19;99722.35;;;8.04;72.71
79368;BME280;68834;53.152;17.962;2023-03-25T19:07:47;99721.20;;;8.02;72.71
79368;BME280;68834;53.152;17.962;2023-03-25T19:10:26;99721.86;;;8.03;73.20
79368;BME280;68834;53.152;17.962;2023-03-25T19:12:53;99724.84;;;8.02;72.97
79368;BME280;68834;53.152;17.962;2023-03-25T19:15:22;99727.83;;;8.01;73.23
79368;BME280;68834;53.152;17.962;2023-03-25T19:17:55;99727.27;;;7.97;73.65
79368;BME280;68834;53.152;17.962;2023-03-25T19:20:26;99733.67;;;7.92;73.49
79368;BME280;68834;53.152;17.962;2023-03-25T19:22:54;99731.20;;;7.88;73.84
79368;BME280;68834;53.152;17.962;2023-03-25T19:25:21;99725.88;;;7.80;74.33
79368;BME280;68834;53.152;17.962;2023-03-25T19:27:47;99720.16;;;7.73;74.23
79368;BME280;68834;53.152;17.962;2023-03-25T19:30:18;99717.20;;;7.68;74.14
79368;BME280;68834;53.152;17.962;2023-03-25T19:32:46;99714.89;;;7.63;74.56
79368;BME280;68834;53.152;17.962;2023-03-25T19:35:15;99710.48;;;7.60;74.50
79368;BME280;68834;53.152;17.962;2023-03-25T19:37:42;99701.56;;;7.55;74.57
79368;BME280;68834;53.152;17.962;2023-03-25T19:40:22;99699.39;;;7.52;74.84
79368;BME280;68834;53.152;17.962;2023-03-25T19:42:52;99701.23;;;7.49;74.18
79368;BME280;68834;53.152;17.962;2023-03-25T19:45:19;99694.66;;;7.48;74.33
79368;BME280;68834;53.152;17.962;2023-03-25T19:47:47;99687.79;;;7.45;74.21
79368;BME280;68834;53.152;17.962;2023-03-25T19:50:14;99685.52;;;7.39;74.22
79368;BME280;68834;53.152;17.962;2023-03-25T19:52:43;99689.23;;;7.31;74.94
79368;BME280;68834;53.152;17.962;2023-03-25T19:55:10;99685.41;;;7.25;74.62
79368;BME280;68834;53.152;17.962;2023-03-25T19:57:37;99691.20;;;7.23;74.49
79368;BME280;68834;53.152;17.962;2023-03-25T20:00:06;99691.02;;;7.23;74.66
79368;BME280;68834;53.152;17.962;2023-03-25T20:02:41;99692.40;;;7.24;74.70
79368;BME280;68834;53.152;17.962;2023-03-25T20:05:08;99690.52;;;7.22;75.39
79368;BME280;68834;53.152;17.962;2023-03-25T20:07:37;99687.41;;;7.16;75.22
79368;BME280;68834;53.152;17.962;2023-03-25T20:10:06;99695.00;;;7.11;75.16
79368;BME280;68834;53.152;17.962;2023-03-25T20:12:33;99699.98;;;7.07;75.24
79368;BME280;68834;53.152;17.962;2023-03-25T20:15:05;99701.06;;;6.99;75.19
79368;BME280;68834;53.152;17.962;2023-03-25T20:17:33;99711.71;;;6.91;75.52
79368;BME280;68834;53.152;17.962;2023-03-25T20:19:59;99711.73;;;6.83;75.72
79368;BME280;68834;53.152;17.962;2023-03-25T20:22:26;99715.50;;;6.78;76.39
79368;BME280;68834;53.152;17.962;2023-03-25T20:24:53;99712.26;;;6.77;76.56
79368;BME280;68834;53.152;17.962;2023-03-25T20:27:21;99714.52;;;6.76;76.26
79368;BME280;68834;53.152;17.962;2023-03-25T20:29:48;99718.27;;;6.79;76.21
79368;BME280;68834;53.152;17.962;2023-03-25T20:32:14;99717.54;;;6.81;76.29
79368;BME280;68834;53.152;17.962;2023-03-25T20:34:41;99713.18;;;6.81;76.66
79368;BME280;68834;53.152;17.962;2023-03-25T20:37:08;99708.61;;;6.83;76.36
79368;BME280;68834;53.152;17.962;2023-03-25T20:39:35;99707.69;;;6.85;76.69
79368;BME280;68834;53.152;17.962;2023-03-25T20:42:02;99702.11;;;6.86;76.86
79368;BME280;68834;53.152;17.962;2023-03-25T20:44:28;99697.35;;;6.89;77.10
79368;BME280;68834;53.152;17.962;2023-03-25T20:46:56;99694.26;;;6.94;76.69
79368;BME280;68834;53.152;17.962;2023-03-25T20:49:22;99697.39;;;7.00;76.65
79368;BME280;68834;53.152;17.962;2023-03-25T20:51:51;99702.33;;;7.04;76.61
79368;BME280;68834;53.152;17.962;2023-03-25T20:54:20;99703.83;;;7.06;77.16
79368;BME280;68834;53.152;17.962;2023-03-25T20:56:47;99703.83;;;7.06;77.25
79368;BME280;68834;53.152;17.962;2023-03-25T20:59:13;99701.40;;;7.06;76.77
79368;BME280;68834;53.152;17.962;2023-03-25T21:01:42;99701.42;;;7.05;77.18
79368;BME280;68834;53.152;17.962;2023-03-25T21:04:09;99699.83;;;7.06;76.96
79368;BME280;68834;53.152;17.962;2023-03-25T21:06:37;99692.59;;;7.10;77.18
79368;BME280;68834;53.152;17.962;2023-03-25T21:09:04;99698.02;;;7.16;76.62
79368;BME280;68834;53.152;17.962;2023-03-25T21:11:31;99691.88;;;7.18;76.82
79368;BME280;68834;53.152;17.962;2023-03-25T21:13:58;99695.54;;;7.17;76.61
79368;BME280;68834;53.152;17.962;2023-03-25T21:16:24;99696.09;;;7.16;76.65
79368;BME280;68834;53.152;17.962;2023-03-25T21:18:52;99695.70;;;7.18;76.45
79368;BME280;68834;53.152;17.962;2023-03-25T21:21:21;99694.20;;;7.21;76.69
79368;BME280;68834;53.152;17.962;2023-03-25T21:23:48;99687.02;;;7.22;76.53
79368;BME280;68834;53.152;17.962;2023-03-25T21:26:15;99691.20;;;7.23;76.47
79368;BME280;68834;53.152;17.962;2023-03-25T21:28:42;99694.14;;;7.23;76.53
79368;BME280;68834;53.152;17.962;2023-03-25T21:31:11;99692.06;;;7.23;76.55
79368;BME280;68834;53.152;17.962;2023-03-25T21:33:43;99694.52;;;7.22;76.40
79368;BME280;68834;53.152;17.962;2023-03-25T21:36:15;99692.04;;;7.24;76.60
79368;BME280;68834;53.152;17.962;2023-03-25T21:38:43;99684.77;;;7.23;76.81
79368;BME280;68834;53.152;17.962;2023-03-25T21:41:11;99681.69;;;7.21;76.85
79368;BME280;68834;53.152;17.962;2023-03-25T21:43:38;99680.38;;;7.18;76.64
79368;BME280;68834;53.152;17.962;2023-03-25T21:46:06;99679.41;;;7.16;76.70
79368;BME280;68834;53.152;17.962;2023-03-25T21:48:33;99678.09;;;7.13;76.97
79368;BME280;68834;53.152;17.962;2023-03-25T21:51:05;99679.30;;;7.13;76.86
79368;BME280;68834;53.152;17.962;2023-03-25T21:53:35;99682.52;;;7.17;76.72
79368;BME280;68834;53.152;17.962;2023-03-25T21:56:16;99678.81;;;7.19;77.00
79368;BME280;68834;53.152;17.962;2023-03-25T21:58:44;99678.66;;;7.18;77.05
79368;BME280;68834;53.152;17.962;2023-03-25T22:01:15;99676.30;;;7.16;77.45
79368;BME280;68834;53.152;17.962;2023-03-25T22:03:42;99675.29;;;7.14;77.28
79368;BME280;68834;53.152;17.962;2023-03-25T22:06:19;99677.67;;;7.16;77.33
79368;BME280;68834;53.152;17.962;2023-03-25T22:08:46;99676.54;;;7.19;77.42
79368;BME280;68834;53.152;17.962;2023-03-25T22:11:21;99673.71;;;7.21;77.40
79368;BME280;68834;53.152;17.962;2023-03-25T22:13:50;99672.63;;;7.22;77.21
79368;BME280;68834;53.152;17.962;2023-03-25T22:16:18;99671.54;;;7.24;77.09
79368;BME280;68834;53.152;17.962;2023-03-25T22:18:46;99669.23;;;7.25;77.24
79368;BME280;68834;53.152;17.962;2023-03-25T22:21:20;99667.80;;;7.27;77.33
79368;BME280;68834;53.152;17.962;2023-03-25T22:23:48;99669.30;;;7.29;77.05
79368;BME280;68834;53.152;17.962;2023-03-25T22:26:17;99667.71;;;7.29;77.05
79368;BME280;68834;53.152;17.962;2023-03-25T22:28:44;99667.59;;;7.28;77.24
79368;BME280;68834;53.152;17.962;2023-03-25T22:31:13;99665.90;;;7.26;77.20
79368;BME280;68834;53.152;17.962;2023-03-25T22:33:40;99661.17;;;7.27;76.96
79368;BME280;68834;53.152;17.962;2023-03-25T22:36:10;99665.98;;;7.29;76.90
79368;BME280;68834;53.152;17.962;2023-03-25T22:38:39;99664.40;;;7.30;77.05
79368;BME280;68834;53.152;17.962;2023-03-25T22:41:07;99662.15;;;7.29;76.86
79368;BME280;68834;53.152;17.962;2023-03-25T22:43:34;99664.94;;;7.29;76.83
79368;BME280;68834;53.152;17.962;2023-03-25T22:46:03;99655.29;;;7.27;77.12
79368;BME280;68834;53.152;17.962;2023-03-25T22:48:30;99648.70;;;7.26;77.16
79368;BME280;68834;53.152;17.962;2023-03-25T22:50:57;99655.87;;;7.25;76.93
79368;BME280;68834;53.152;17.962;2023-03-25T22:53:25;99647.23;;;7.22;76.88
79368;BME280;68834;53.152;17.962;2023-03-25T22:55:54;99653.70;;;7.21;77.32
79368;BME280;68834;53.152;17.962;2023-03-25T22:58:23;99657.38;;;7.21;77.19
79368;BME280;68834;53.152;17.962;2023-03-25T23:00:50;99656.35;;;7.21;77.28
79368;BME280;68834;53.152;17.962;2023-03-25T23:03:18;99660.28;;;7.22;77.32
79368;BME280;68834;53.152;17.962;2023-03-25T23:06:00;99657.13;;;7.24;77.32
79368;BME280;68834;53.152;17.962;2023-03-25T23:08:29;99660.77;;;7.23;77.12
79368;BME280;68834;53.152;17.962;2023-03-25T23:13:33;99662.39;;;7.21;77.40
79368;BME280;68834;53.152;17.962;2023-03-25T23:16:03;99660.27;;;7.23;77.32
79368;BME280;68834;53.152;17.962;2023-03-25T23:18:30;99658.14;;;7.24;77.40
79368;BME280;68834;53.152;17.962;2023-03-25T23:20:57;99659.77;;;7.22;77.31
79368;BME280;68834;53.152;17.962;2023-03-25T23:23:25;99658.05;;;7.21;77.20
79368;BME280;68834;53.152;17.962;2023-03-25T23:26:07;99658.03;;;7.22;77.33
79368;BME280;68834;53.152;17.962;2023-03-25T23:28:36;99652.41;;;7.24;77.16
79368;BME280;68834;53.152;17.962;2023-03-25T23:31:09;99650.80;;;7.26;77.29
79368;BME280;68834;53.152;17.962;2023-03-25T23:33:36;99647.02;;;7.25;77.20
79368;BME280;68834;53.152;17.962;2023-03-25T23:36:04;99641.53;;;7.22;77.01
79368;BME280;68834;53.152;17.962;2023-03-25T23:38:31;99642.13;;;7.19;77.24
79368;BME280;68834;53.152;17.962;2023-03-25T23:41:01;99639.20;;;7.18;77.12
79368;BME280;68834;53.152;17.962;2023-03-25T23:43:28;99642.24;;;7.15;77.44
79368;BME280;68834;53.152;17.962;2023-03-25T23:45:55;99640.14;;;7.09;77.57
79368;BME280;68834;53.152;17.962;2023-03-25T23:48:22;99639.05;;;7.05;77.76
79368;BME280;68834;53.152;17.962;2023-03-25T23:50:51;99642.09;;;7.02;77.80
79368;BME280;68834;53.152;17.962;2023-03-25T23:53:18;99640.16;;;7.02;77.93
79368;BME280;68834;53.152;17.962;2023-03-25T23:55:46;99638.08;;;7.02;78.03
79368;BME280;68834;53.152;17.962;2023-03-25T23:58:14;99641.88;;;7.03;77.88
